Time;durP1;ratioP1;P1;durP2;ratioP2;P2;SDS_P1;SDS_P2;PMS_P1;PMS_P2;Temp;Humidity;BMP_temperature;BMP_pressure;BME280_temperature;BME280_humidity;BME280_pressure;Samples;Min_cycle;Max_cycle;Signal;HPM_P1;HPM_P2
2021/08/25 00:00:05;;;;;;;7.05;3.40;;;14.60;71.40;;;;;;5094877;28;20043;-47
2021/08/25 00:02:31;;;;;;;4.40;2.78;;;14.50;71.70;;;;;;5094596;28;20066;-47
2021/08/25 00:04:56;;;;;;;5.47;2.70;;;14.50;71.60;;;;;;5094669;28;20024;-51
2021/08/25 00:07:23;;;;;;;5.47;3.13;;;14.50;71.60;;;;;;5094905;28;20081;-47
2021/08/25 00:09:48;;;;;;;5.43;2.92;;;14.40;71.70;;;;;;5094846;28;20036;-47
2021/08/25 00:12:14;;;;;;;4.28;2.50;;;14.50;71.80;;;;;;5094255;28;20306;-46
2021/08/25 00:14:41;;;;;;;6.70;2.72;;;14.40;71.90;;;;;;5094406;28;20100;-48
2021/08/25 00:17:07;;;;;;;8.55;3.83;;;14.40;71.90;;;;;;5094403;28;20023;-48
2021/08/25 00:19:33;;;;;;;5.72;2.55;;;14.40;72.10;;;;;;5094251;28;20111;-47
2021/08/25 00:21:58;;;;;;;4.75;2.80;;;14.40;72.10;;;;;;5094598;28;20103;-48
2021/08/25 00:24:24;;;;;;;5.70;3.22;;;14.30;72.30;;;;;;5094238;28;20504;-45
2021/08/25 00:26:50;;;;;;;5.43;2.40;;;14.30;72.20;;;;;;5094161;28;20024;-45
2021/08/25 00:29:16;;;;;;;10.18;3.30;;;14.30;72.60;;;;;;5094192;28;20380;-46
2021/08/25 00:31:42;;;;;;;5.55;2.80;;;14.40;72.50;;;;;;5094312;28;20024;-48
2021/08/25 00:34:09;;;;;;;8.73;4.38;;;14.30;72.80;;;;;;5093005;28;20032;-46
2021/08/25 00:36:35;;;;;;;6.95;3.35;;;14.30;73.00;;;;;;5094058;28;20158;-46
2021/08/25 00:39:01;;;;;;;5.65;2.70;;;14.30;73.20;;;;;;5094814;28;20389;-47
2021/08/25 00:41:27;;;;;;;8.23;3.20;;;14.30;73.60;;;;;;5094276;28;20020;-47
2021/08/25 00:43:53;;;;;;;10.90;3.97;;;14.30;74.10;;;;;;5093753;28;20093;-46
2021/08/25 00:46:19;;;;;;;4.95;2.60;;;14.30;74.10;;;;;;5093890;28;20464;-47
2021/08/25 00:48:48;;;;;;;5.38;2.80;;;14.30;74.00;;;;;;5094494;28;20031;-47
2021/08/25 00:51:16;;;;;;;5.63;3.20;;;14.30;74.90;;;;;;5093874;28;20031;-46
2021/08/25 00:53:43;;;;;;;14.82;4.80;;;14.30;74.70;;;;;;5093688;28;20020;-47
2021/08/25 00:56:08;;;;;;;13.63;5.57;;;14.10;75.00;;;;;;5094191;28;20031;-48
2021/08/25 00:58:39;;;;;;;10.65;5.20;;;14.00;75.20;;;;;;5093542;28;20024;-46
2021/08/25 01:01:20;;;;;;;6.18;3.20;;;13.90;75.30;;;;;;5093261;28;20114;-46
2021/08/25 01:03:50;;;;;;;5.38;3.47;;;13.90;75.70;;;;;;5093874;28;20047;-48
2021/08/25 01:06:21;;;;;;;5.20;2.88;;;13.80;76.20;;;;;;5093239;28;20112;-49
2021/08/25 01:08:48;;;;;;;6.45;3.55;;;13.80;76.10;;;;;;5093322;28;20073;-48
2021/08/25 01:11:14;;;;;;;9.43;2.92;;;13.80;76.00;;;;;;5094140;28;20359;-46
2021/08/25 01:13:40;;;;;;;5.07;3.72;;;13.80;76.00;;;;;;5092960;28;20052;-46
2021/08/25 01:16:07;;;;;;;9.10;3.40;;;13.80;75.90;;;;;;5093396;28;20055;-47
2021/08/25 01:18:34;;;;;;;5.32;3.58;;;13.70;76.00;;;;;;5093089;28;20024;-49
2021/08/25 01:21:00;;;;;;;5.40;3.10;;;13.70;76.30;;;;;;5093325;28;20091;-51
2021/08/25 01:23:27;;;;;;;6.43;3.50;;;13.80;76.30;;;;;;5093392;28;20509;-47
2021/08/25 01:25:56;;;;;;;4.28;2.75;;;13.70;76.40;;;;;;5093675;28;20031;-45
2021/08/25 01:28:25;;;;;;;4.00;2.80;;;13.70;76.40;;;;;;5092976;28;20047;-46
2021/08/25 01:30:51;;;;;;;6.47;2.85;;;13.70;77.30;;;;;;5092938;28;20020;-45
2021/08/25 01:33:21;;;;;;;6.32;2.88;;;13.70;77.00;;;;;;5093798;28;20032;-45
2021/08/25 01:35:47;;;;;;;6.20;3.05;;;13.60;77.00;;;;;;5093241;28;20127;-47
2021/08/25 01:38:24;;;;;;;8.20;3.60;;;13.50;77.60;;;;;;5093124;28;20383;-46
2021/08/25 01:40:49;;;;;;;7.97;3.50;;;13.50;78.20;;;;;;5093480;28;20052;-48
2021/08/25 01:43:15;;;;;;;5.18;3.35;;;13.50;78.30;;;;;;5093080;28;20035;-47
2021/08/25 01:45:40;;;;;;;5.07;3.13;;;13.50;78.30;;;;;;5093398;28;20032;-47
2021/08/25 01:48:06;;;;;;;8.65;3.47;;;13.50;78.40;;;;;;5093129;28;20074;-47
2021/08/25 01:50:32;;;;;;;4.68;2.55;;;13.40;78.90;;;;;;5093304;28;20032;-48
2021/08/25 01:52:57;;;;;;;9.93;3.15;;;13.30;79.30;;;;;;5092952;28;20421;-46
2021/08/25 01:55:23;;;;;;;6.38;3.58;;;13.30;79.50;;;;;;5094917;28;20036;-46
2021/08/25 01:57:49;;;;;;;8.60;3.42;;;13.30;79.50;;;;;;5078926;28;20468;-46
2021/08/25 02:00:15;;;;;;;6.05;3.83;;;13.30;79.40;;;;;;5097050;28;20093;-46
2021/08/25 02:02:40;;;;;;;5.40;3.15;;;13.30;79.20;;;;;;5095774;28;20028;-47
2021/08/25 02:05:07;;;;;;;7.15;3.40;;;13.30;79.20;;;;;;5095726;28;20130;-47
2021/08/25 02:07:32;;;;;;;8.25;3.47;;;13.30;79.00;;;;;;5097043;28;20035;-46
2021/08/25 02:09:58;;;;;;;7.00;3.65;;;13.30;78.80;;;;;;5096966;28;20547;-48
2021/08/25 02:12:23;;;;;;;5.05;3.40;;;13.30;79.00;;;;;;5096819;28;20048;-46
2021/08/25 02:14:49;;;;;;;9.98;3.75;;;13.30;79.00;;;;;;5097058;28;20030;-46
2021/08/25 02:17:15;;;;;;;5.63;3.22;;;13.20;79.20;;;;;;5096807;28;20012;-47
2021/08/25 02:19:40;;;;;;;7.70;3.42;;;13.20;79.30;;;;;;5096711;28;20127;-46
2021/08/25 02:22:06;;;;;;;7.90;3.45;;;13.10;79.80;;;;;;5097196;28;20468;-46
2021/08/25 02:24:31;;;;;;;6.45;3.65;;;13.10;79.90;;;;;;5096697;28;20032;-47
2021/08/25 02:26:57;;;;;;;5.93;3.33;;;13.00;79.80;;;;;;5097181;28;20047;-46
2021/08/25 02:29:23;;;;;;;4.72;3.15;;;13.00;80.00;;;;;;5096617;28;20020;-49
2021/08/25 02:31:49;;;;;;;4.75;2.78;;;13.00;79.90;;;;;;5095223;28;20055;-47
2021/08/25 02:34:17;;;;;;;8.70;3.60;;;13.00;80.10;;;;;;5096499;28;20036;-46
2021/08/25 02:36:43;;;;;;;5.65;3.05;;;12.90;80.30;;;;;;5096359;28;20074;-50
2021/08/25 02:39:08;;;;;;;7.15;2.97;;;13.00;80.00;;;;;;5096709;28;20464;-47
2021/08/25 02:41:34;;;;;;;5.30;2.88;;;12.90;80.00;;;;;;5096358;28;20032;-45
2021/08/25 02:44:00;;;;;;;8.38;3.35;;;12.80;80.50;;;;;;5096287;28;20028;-47
2021/08/25 02:46:25;;;;;;;4.28;2.72;;;12.80;81.00;;;;;;5096301;28;20027;-47
2021/08/25 02:48:51;;;;;;;5.47;3.33;;;12.70;81.30;;;;;;5096163;28;20039;-46
2021/08/25 02:51:17;;;;;;;10.43;3.00;;;12.70;81.10;;;;;;5096131;28;20032;-47
2021/08/25 02:53:43;;;;;;;6.22;3.03;;;12.80;81.10;;;;;;5096129;28;20027;-46
2021/08/25 02:56:08;;;;;;;8.75;3.33;;;12.70;80.90;;;;;;5095948;28;20024;-50
2021/08/25 02:58:34;;;;;;;4.43;2.85;;;12.70;81.00;;;;;;5096136;28;20024;-47
2021/08/25 03:01:00;;;;;;;5.32;2.97;;;12.60;81.00;;;;;;5095898;28;20038;-46
2021/08/25 03:03:25;;;;;;;4.88;2.67;;;12.60;81.50;;;;;;5095834;28;20017;-46
2021/08/25 03:05:51;;;;;;;4.28;2.72;;;12.50;81.50;;;;;;5096288;28;20032;-46
2021/08/25 03:08:16;;;;;;;6.03;2.83;;;12.50;81.50;;;;;;5077580;28;20380;-45
2021/08/25 03:10:42;;;;;;;7.38;3.25;;;12.50;81.60;;;;;;5096287;28;20129;-46
2021/08/25 03:13:08;;;;;;;5.82;2.85;;;12.50;81.40;;;;;;5095778;28;20055;-46
2021/08/25 03:15:34;;;;;;;6.07;3.60;;;12.50;81.50;;;;;;5095551;28;20062;-47
2021/08/25 03:18:00;;;;;;;7.20;3.47;;;12.50;81.50;;;;;;5095697;28;20039;-47
2021/08/25 03:20:26;;;;;;;7.07;3.47;;;12.50;81.70;;;;;;5095727;28;20420;-46
2021/08/25 03:22:51;;;;;;;7.28;3.42;;;12.40;81.80;;;;;;5095573;28;20443;-46
2021/08/25 03:25:17;;;;;;;7.93;3.20;;;12.30;82.00;;;;;;5095690;28;20487;-45
2021/08/25 03:27:42;;;;;;;5.72;3.70;;;12.40;82.20;;;;;;5095449;28;20145;-46
2021/08/25 03:30:09;;;;;;;7.28;3.63;;;12.40;82.00;;;;;;5095489;28;20444;-47
2021/08/25 03:32:34;;;;;;;6.28;3.50;;;12.30;82.10;;;;;;5095336;28;20028;-47
2021/08/25 03:35:00;;;;;;;8.02;3.60;;;12.30;82.10;;;;;;5095422;28;20035;-47
2021/08/25 03:37:26;;;;;;;8.38;4.75;;;12.30;82.20;;;;;;5077214;28;20385;-45
2021/08/25 03:39:51;;;;;;;7.28;4.95;;;12.30;82.10;;;;;;5094054;28;20503;-45
2021/08/25 03:42:17;;;;;;;9.25;4.05;;;12.30;82.00;;;;;;5095420;28;20063;-45
2021/08/25 03:44:42;;;;;;;7.75;4.53;;;12.30;82.00;;;;;;5093847;28;20038;-46
2021/08/25 03:47:09;;;;;;;9.93;4.45;;;12.30;82.20;;;;;;5095156;28;20034;-45
2021/08/25 03:49:35;;;;;;;7.68;4.47;;;12.30;82.10;;;;;;5095353;28;20032;-47
2021/08/25 03:52:01;;;;;;;6.85;3.53;;;12.30;82.10;;;;;;5095018;28;20079;-46
2021/08/25 03:54:28;;;;;;;11.43;6.07;;;12.30;82.20;;;;;;5095013;28;20167;-46
2021/08/25 03:56:54;;;;;;;4.07;2.95;;;12.30;82.30;;;;;;5095163;28;20371;-45
2021/08/25 03:59:20;;;;;;;7.32;3.35;;;12.20;82.70;;;;;;5093572;28;20021;-48
2021/08/25 04:01:46;;;;;;;6.20;3.20;;;12.10;82.80;;;;;;5094978;28;20020;-48
2021/08/25 04:04:12;;;;;;;7.25;3.70;;;12.20;82.70;;;;;;5093440;28;20032;-45
2021/08/25 04:06:39;;;;;;;7.28;3.80;;;12.20;82.50;;;;;;5095110;28;20471;-46
2021/08/25 04:09:05;;;;;;;6.72;4.07;;;12.20;82.50;;;;;;5094653;28;20039;-46
2021/08/25 04:11:31;;;;;;;6.47;3.42;;;12.20;82.70;;;;;;5093302;28;20546;-45
2021/08/25 04:13:58;;;;;;;12.93;3.75;;;12.10;83.00;;;;;;5093115;28;20048;-48
2021/08/25 04:16:24;;;;;;;6.15;3.38;;;12.00;83.20;;;;;;5093125;28;20468;-47
2021/08/25 04:18:49;;;;;;;6.50;3.70;;;11.90;83.50;;;;;;5094083;28;20024;-47
2021/08/25 04:21:15;;;;;;;6.47;3.38;;;11.90;83.80;;;;;;5094212;28;20424;-46
2021/08/25 04:23:41;;;;;;;11.18;3.45;;;11.80;83.90;;;;;;5093589;28;20024;-46
2021/08/25 04:26:07;;;;;;;7.40;3.72;;;11.80;84.00;;;;;;5094167;28;20043;-46
2021/08/25 04:28:33;;;;;;;7.25;3.33;;;11.80;84.10;;;;;;5094117;28;20028;-47
2021/08/25 04:30:58;;;;;;;8.23;4.25;;;11.80;84.10;;;;;;5093474;28;20024;-48
2021/08/25 04:33:24;;;;;;;7.43;3.78;;;11.80;84.20;;;;;;5093607;28;20492;-50
2021/08/25 04:35:50;;;;;;;10.70;4.25;;;11.90;84.10;;;;;;5093621;28;20084;-50
2021/08/25 04:38:16;;;;;;;6.05;3.13;;;11.90;84.10;;;;;;5094004;28;20031;-46
2021/08/25 04:40:41;;;;;;;4.25;2.65;;;11.90;83.80;;;;;;5093669;28;20109;-46
2021/08/25 04:43:07;;;;;;;5.38;2.97;;;11.80;83.60;;;;;;5093549;28;20074;-46
2021/08/25 04:45:32;;;;;;;6.82;3.38;;;11.70;84.40;;;;;;5092261;28;20489;-46
2021/08/25 04:47:58;;;;;;;7.13;3.45;;;11.60;84.60;;;;;;5092192;28;20541;-46
2021/08/25 04:50:24;;;;;;;6.50;3.63;;;11.60;84.90;;;;;;5093731;28;20055;-47
2021/08/25 04:52:50;;;;;;;9.45;4.47;;;11.60;84.80;;;;;;5093338;28;20024;-48
2021/08/25 04:55:16;;;;;;;9.02;3.17;;;11.60;84.60;;;;;;5093419;28;20085;-49
2021/08/25 04:57:42;;;;;;;9.40;4.13;;;11.60;84.70;;;;;;5093408;28;20016;-47
2021/08/25 05:00:08;;;;;;;7.13;4.68;;;11.60;84.70;;;;;;5091822;28;20024;-48
2021/08/25 05:02:35;;;;;;;7.18;3.20;;;11.60;84.90;;;;;;5091804;28;20042;-47
2021/08/25 05:05:00;;;;;;;10.85;5.63;;;11.60;84.70;;;;;;5093177;28;20024;-49
2021/08/25 05:07:26;;;;;;;8.15;4.15;;;11.60;84.70;;;;;;5093339;28;20035;-48
2021/08/25 05:09:51;;;;;;;6.68;3.70;;;11.60;84.80;;;;;;5093121;28;20157;-46
2021/08/25 05:12:18;;;;;;;5.20;3.17;;;11.70;84.70;;;;;;5093041;28;20047;-47
2021/08/25 05:14:44;;;;;;;8.63;4.60;;;11.80;84.60;;;;;;5093734;28;20032;-48
2021/08/25 05:17:12;;;;;;;6.55;4.18;;;11.80;84.40;;;;;;5093579;28;20027;-47
2021/08/25 05:19:38;;;;;;;6.38;4.20;;;11.80;84.10;;;;;;5092995;28;20031;-51
2021/08/25 05:22:04;;;;;;;10.88;4.65;;;11.90;83.60;;;;;;5093127;28;20380;-49
2021/08/25 05:24:29;;;;;;;12.05;5.45;;;11.90;83.60;;;;;;5092916;28;20028;-47
2021/08/25 05:26:55;;;;;;;12.05;5.00;;;12.00;83.10;;;;;;5093491;28;20028;-48
2021/08/25 05:29:23;;;;;;;9.23;4.07;;;12.00;83.10;;;;;;5092730;28;20067;-48
2021/08/25 05:31:49;;;;;;;7.82;4.80;;;12.00;83.10;;;;;;5093309;28;20525;-47
2021/08/25 05:34:15;;;;;;;11.63;5.10;;;12.10;83.20;;;;;;5093632;28;20024;-48
2021/08/25 05:36:41;;;;;;;9.65;5.45;;;12.20;82.80;;;;;;5093408;28;20210;-48
2021/08/25 05:39:07;;;;;;;8.35;5.07;;;12.20;82.40;;;;;;5093560;28;20372;-48
2021/08/25 05:41:32;;;;;;;12.90;6.68;;;12.20;82.30;;;;;;5091862;28;20151;-46
2021/08/25 05:44:03;;;;;;;13.20;5.82;;;12.20;82.30;;;;;;5092998;28;20032;-47
2021/08/25 05:46:29;;;;;;;;;;;12.30;82.20;;;;;;5094061;28;20024;-46
2021/08/25 05:48:55;;;;;;;10.38;5.47;;;12.30;82.10;;;;;;5091544;28;19911;-46
2021/08/25 05:51:20;;;;;;;8.32;5.20;;;12.40;81.90;;;;;;5092637;28;20024;-47
2021/08/25 05:53:47;;;;;;;9.82;5.82;;;12.60;81.10;;;;;;5092955;28;20028;-47
2021/08/25 05:56:13;;;;;;;13.75;5.38;;;12.80;80.60;;;;;;5093043;28;20055;-48
2021/08/25 05:58:42;;;;;;;9.98;5.40;;;12.80;79.90;;;;;;5093358;28;20481;-47
2021/08/25 06:01:08;;;;;;;11.60;5.75;;;13.00;79.90;;;;;;5094027;28;20099;-47
2021/08/25 06:03:33;;;;;;;9.15;5.55;;;13.10;79.40;;;;;;5091513;28;20062;-48
2021/08/25 06:05:59;;;;;;;9.40;5.82;;;13.30;78.70;;;;;;5092884;28;20036;-48
2021/08/25 06:08:24;;;;;;;9.05;4.85;;;13.50;77.90;;;;;;5092690;28;20516;-48
2021/08/25 06:10:50;;;;;;;11.52;5.38;;;13.60;77.50;;;;;;5092313;28;20024;-47
2021/08/25 06:13:16;;;;;;;12.38;5.38;;;13.70;77.00;;;;;;5092289;28;20051;-47
2021/08/25 06:15:41;;;;;;;11.88;6.82;;;13.70;77.30;;;;;;5092359;28;20024;-49
2021/08/25 06:18:07;;;;;;;9.35;5.75;;;13.80;76.60;;;;;;5092901;28;20049;-46
2021/08/25 06:20:34;;;;;;;8.90;5.05;;;13.90;76.30;;;;;;5092221;28;20487;-47
2021/08/25 06:23:00;;;;;;;9.32;5.22;;;13.90;76.10;;;;;;5092275;28;20016;-45
2021/08/25 06:25:25;;;;;;;9.68;5.28;;;13.80;76.60;;;;;;5092393;28;20495;-46
2021/08/25 06:27:51;;;;;;;11.77;5.97;;;13.90;76.90;;;;;;5092149;28;20024;-46
2021/08/25 06:30:17;;;;;;;11.82;6.05;;;14.10;76.10;;;;;;5090667;28;20496;-48
2021/08/25 06:32:43;;;;;;;7.82;5.28;;;14.30;75.10;;;;;;5092017;28;20039;-47
2021/08/25 06:35:09;;;;;;;10.20;4.75;;;14.30;75.20;;;;;;5090652;28;20028;-46
2021/08/25 06:37:34;;;;;;;10.88;5.05;;;14.40;74.30;;;;;;5092199;28;20475;-48
2021/08/25 06:40:00;;;;;;;11.85;5.35;;;14.40;74.40;;;;;;5092166;28;20016;-46
2021/08/25 06:42:26;;;;;;;11.15;5.38;;;14.40;74.30;;;;;;5095761;28;20055;-48
2021/08/25 06:44:51;;;;;;;18.25;6.72;;;14.50;73.90;;;;;;5096086;28;20478;-47
2021/08/25 06:47:17;;;;;;;11.98;5.40;;;14.60;73.70;;;;;;5095507;28;20027;-47
2021/08/25 06:49:43;;;;;;;12.27;6.38;;;14.70;73.70;;;;;;5095372;28;20116;-47
2021/08/25 06:52:08;;;;;;;9.80;6.22;;;14.80;72.80;;;;;;5095558;28;20020;-46
2021/08/25 06:54:34;;;;;;;9.23;6.10;;;14.90;72.50;;;;;;5095457;28;20085;-46
2021/08/25 06:56:59;;;;;;;11.75;6.40;;;15.00;72.40;;;;;;5093867;28;20360;-48
2021/08/25 06:59:25;;;;;;;8.15;4.78;;;15.10;72.10;;;;;;5095144;28;20050;-45
2021/08/25 07:01:51;;;;;;;15.50;6.82;;;15.30;71.60;;;;;;5095046;28;20383;-48
2021/08/25 07:04:18;;;;;;;18.30;6.03;;;15.30;71.40;;;;;;5095256;28;20024;-46
2021/08/25 07:06:44;;;;;;;12.27;6.18;;;15.40;71.40;;;;;;5095028;28;20020;-46
2021/08/25 07:09:10;;;;;;;12.55;5.90;;;15.70;70.90;;;;;;5095109;28;20028;-47
2021/08/25 07:11:35;;;;;;;12.15;6.25;;;16.00;69.70;;;;;;5095545;28;20517;-49
2021/08/25 07:14:02;;;;;;;13.32;6.43;;;16.10;68.90;;;;;;5093236;28;20609;-49
2021/08/25 07:16:34;;;;;;;11.43;6.07;;;16.10;68.80;;;;;;5093207;28;20119;-46
2021/08/25 07:19:04;;;;;;;8.75;5.03;;;16.00;69.30;;;;;;5094603;28;20097;-47
2021/08/25 07:21:30;;;;;;;7.00;4.88;;;16.20;68.30;;;;;;5094849;28;20089;-47
2021/08/25 07:23:59;;;;;;;15.07;7.28;;;16.40;68.10;;;;;;5095369;28;20107;-48
2021/08/25 07:26:25;;;;;;;10.80;5.60;;;16.80;66.80;;;;;;5095222;28;20020;-46
2021/08/25 07:28:51;;;;;;;11.38;6.55;;;16.70;67.40;;;;;;5094547;28;20028;-48
2021/08/25 07:31:17;;;;;;;14.05;6.13;;;16.80;67.00;;;;;;5094992;28;20028;-49
2021/08/25 07:33:43;;;;;;;13.68;7.57;;;16.90;67.00;;;;;;5093177;28;20479;-45
2021/08/25 07:36:09;;;;;;;11.30;5.85;;;17.10;66.10;;;;;;5094494;28;20111;-49
2021/08/25 07:38:35;;;;;;;13.80;6.13;;;17.40;64.90;;;;;;5076108;28;20047;-47
2021/08/25 07:41:01;;;;;;;10.15;5.60;;;17.40;64.50;;;;;;5093271;28;20024;-46
2021/08/25 07:43:27;;;;;;;9.15;5.80;;;17.40;64.90;;;;;;5094497;28;20016;-47
2021/08/25 07:45:53;;;;;;;11.63;6.18;;;17.70;64.30;;;;;;5094969;28;20372;-45
2021/08/25 07:48:19;;;;;;;12.20;6.10;;;18.00;63.30;;;;;;5094136;28;20039;-46
2021/08/25 07:50:44;;;;;;;11.27;5.50;;;18.10;63.10;;;;;;5094591;28;20448;-46
2021/08/25 07:53:10;;;;;;;9.40;5.32;;;18.50;62.10;;;;;;5093148;28;20055;-47
2021/08/25 07:55:36;;;;;;;9.93;6.40;;;18.80;61.40;;;;;;5094081;28;20028;-48
2021/08/25 07:58:02;;;;;;;11.10;5.57;;;19.00;60.60;;;;;;5093967;28;20383;-46
2021/08/25 08:00:28;;;;;;;10.35;5.53;;;18.80;61.20;;;;;;5094044;28;20032;-47
2021/08/25 08:02:53;;;;;;;8.25;5.45;;;18.90;61.20;;;;;;5092538;28;20549;-46
2021/08/25 08:05:19;;;;;;;10.27;4.90;;;19.30;60.40;;;;;;5094230;28;20025;-50
2021/08/25 08:07:45;;;;;;;7.50;4.28;;;19.60;59.10;;;;;;5076082;28;20036;-49
2021/08/25 08:10:12;;;;;;;9.35;4.78;;;19.80;58.70;;;;;;5093912;28;20421;-49
2021/08/25 08:12:37;;;;;;;13.43;5.30;;;19.80;58.50;;;;;;5094069;28;20128;-50
2021/08/25 08:15:10;;;;;;;10.02;5.75;;;19.40;59.50;;;;;;5094101;28;20032;-46
2021/08/25 08:17:35;;;;;;;11.45;5.68;;;20.10;58.40;;;;;;5094683;28;20020;-48
2021/08/25 08:20:01;;;;;;;10.93;5.60;;;21.20;55.20;;;;;;5093814;28;20149;-49
2021/08/25 08:22:27;;;;;;;11.32;5.28;;;21.90;52.50;;;;;;5094102;28;20020;-46
2021/08/25 08:24:53;;;;;;;10.77;6.55;;;21.90;52.60;;;;;;5093469;28;20027;-50
2021/08/25 08:27:18;;;;;;;8.05;4.97;;;22.60;51.20;;;;;;5093527;28;20403;-51
2021/08/25 08:29:44;;;;;;;11.20;4.95;;;22.30;51.40;;;;;;5093666;28;20095;-48
2021/08/25 08:32:10;;;;;;;11.18;5.35;;;21.60;52.70;;;;;;5093722;28;20493;-46
2021/08/25 08:34:36;;;;;;;8.25;4.65;;;21.90;51.90;;;;;;5091993;28;20106;-49
2021/08/25 08:37:02;;;;;;;9.02;4.53;;;22.20;51.20;;;;;;5093296;28;20031;-49
2021/08/25 08:39:28;;;;;;;8.80;4.68;;;23.10;47.40;;;;;;5093763;28;20028;-51
2021/08/25 08:41:54;;;;;;;7.68;4.90;;;22.70;48.50;;;;;;5093354;28;20111;-46
2021/08/25 08:44:20;;;;;;;10.43;4.18;;;22.30;49.90;;;;;;5092979;28;20027;-49
2021/08/25 08:46:49;;;;;;;8.27;4.75;;;22.80;49.00;;;;;;5093178;28;20103;-48
2021/08/25 08:49:17;;;;;;;6.78;3.97;;;23.10;47.30;;;;;;5093266;28;20031;-48
2021/08/25 08:51:42;;;;;;;9.93;5.13;;;23.20;47.60;;;;;;5092741;28;20024;-47
2021/08/25 08:54:08;;;;;;;9.27;4.95;;;24.00;45.00;;;;;;5092886;28;20039;-47
2021/08/25 08:56:34;;;;;;;6.97;4.43;;;24.00;44.70;;;;;;5092813;28;20039;-48
2021/08/25 08:59:02;;;;;;;10.98;4.00;;;23.90;44.40;;;;;;5092939;28;20061;-49
2021/08/25 09:01:29;;;;;;;6.43;3.50;;;24.30;42.80;;;;;;5093251;28;20024;-48
2021/08/25 09:03:55;;;;;;;5.78;4.05;;;23.80;43.40;;;;;;5092862;28;20034;-48
2021/08/25 09:06:20;;;;;;;6.65;3.58;;;23.40;44.10;;;;;;5093205;28;20124;-48
2021/08/25 09:08:58;;;;;;;7.07;4.20;;;23.50;44.20;;;;;;5091133;28;20028;-50
2021/08/25 09:11:23;;;;;;;7.32;3.95;;;23.40;44.40;;;;;;5092612;28;20368;-49
2021/08/25 09:13:51;;;;;;;6.50;3.38;;;23.70;43.40;;;;;;5090997;28;20052;-47
2021/08/25 09:16:34;;;;;;;12.18;5.40;;;24.50;42.10;;;;;;5092838;28;20124;-48
2021/08/25 09:19:13;;;;;;;6.03;4.55;;;25.40;39.90;;;;;;5092463;28;20526;-47
2021/08/25 09:21:42;;;;;;;8.07;3.80;;;24.80;39.40;;;;;;5092969;28;20511;-48
2021/08/25 09:24:10;;;;;;;4.47;3.35;;;24.90;38.70;;;;;;5092646;28;20095;-49
2021/08/25 09:26:38;;;;;;;6.63;3.20;;;24.80;38.70;;;;;;5091752;28;20023;-49
2021/08/25 09:29:20;;;;;;;4.93;3.47;;;24.70;39.10;;;;;;5092937;28;20142;-48
2021/08/25 09:31:48;;;;;;;6.35;3.92;;;24.30;37.90;;;;;;5091670;28;20373;-48
2021/08/25 09:34:31;;;;;;;5.85;3.28;;;24.10;38.00;;;;;;5092888;28;20105;-46
2021/08/25 09:37:04;;;;;;;7.15;3.72;;;24.80;35.80;;;;;;5092446;28;20048;-47
2021/08/25 09:39:30;;;;;;;6.85;3.83;;;24.90;35.20;;;;;;5092414;28;20038;-47
2021/08/25 09:41:57;;;;;;;4.70;3.53;;;24.70;36.20;;;;;;5092651;28;20030;-49
2021/08/25 09:44:22;;;;;;;6.30;3.90;;;24.70;36.00;;;;;;5090743;28;20593;-49
2021/08/25 09:46:51;;;;;;;7.68;3.78;;;24.70;36.20;;;;;;5092841;28;20120;-48
2021/08/25 09:49:17;;;;;;;5.00;3.42;;;24.30;37.50;;;;;;5092727;28;20051;-47
2021/08/25 09:51:43;;;;;;;6.35;3.97;;;24.60;36.20;;;;;;5092438;28;20016;-48
2021/08/25 09:54:11;;;;;;;7.10;3.60;;;25.20;35.50;;;;;;5092217;28;20041;-47
2021/08/25 09:56:39;;;;;;;8.10;4.47;;;26.00;33.80;;;;;;5091808;28;20024;-47
2021/08/25 09:59:06;;;;;;;5.68;3.45;;;25.70;32.70;;;;;;5092296;28;20026;-46
2021/08/25 10:01:32;;;;;;;5.50;4.00;;;25.10;34.40;;;;;;5091893;28;20016;-47
2021/08/25 10:03:58;;;;;;;6.22;3.30;;;25.80;33.70;;;;;;5092080;28;20469;-48
2021/08/25 10:06:26;;;;;;;7.97;3.65;;;26.20;33.80;;;;;;5091859;28;20031;-47
2021/08/25 10:08:53;;;;;;;7.25;3.70;;;25.30;34.50;;;;;;5092533;28;20035;-48
2021/08/25 10:11:28;;;;;;;7.00;3.70;;;25.10;35.60;;;;;;5092861;28;20050;-48
2021/08/25 10:13:54;;;;;;;6.75;3.97;;;25.00;35.20;;;;;;5091525;28;20166;-47
2021/08/25 10:16:49;;;;;;;6.20;3.85;;;25.40;34.70;;;;;;5092285;28;20147;-48
2021/08/25 12:52:52;;;;;;;5.50;3.67;;;27.60;32.70;;;;;;5131997;27;20409;-50
2021/08/25 12:55:18;;;;;;;7.15;3.97;;;27.20;33.40;;;;;;5129660;28;20028;-47
2021/08/25 12:57:44;;;;;;;8.23;4.63;;;27.30;33.50;;;;;;5129792;28;20382;-46
2021/08/25 13:00:11;;;;;;;5.30;3.63;;;27.10;33.80;;;;;;5130707;28;20118;-49
2021/08/25 13:02:41;;;;;;;8.85;3.72;;;26.70;34.50;;;;;;5131250;27;20031;-47
2021/08/25 13:05:12;;;;;;;6.43;3.25;;;26.80;34.70;;;;;;5129547;28;20028;-48
2021/08/25 13:07:37;;;;;;;5.50;3.75;;;28.20;32.80;;;;;;5131270;27;20027;-46
2021/08/25 13:10:04;;;;;;;6.38;3.47;;;29.20;30.90;;;;;;5131371;28;20031;-49
2021/08/25 13:12:29;;;;;;;4.38;2.70;;;28.10;32.70;;;;;;5131246;28;20531;-47
2021/08/25 13:14:55;;;;;;;5.43;3.65;;;27.30;34.00;;;;;;5131208;27;20050;-47
2021/08/25 13:17:20;;;;;;;6.85;3.45;;;28.60;32.10;;;;;;5131080;28;20098;-48
2021/08/25 13:19:47;;;;;;;8.40;4.03;;;28.30;32.40;;;;;;5131131;27;20023;-48
2021/08/25 13:22:12;;;;;;;4.10;3.22;;;28.40;31.90;;;;;;5130362;27;20027;-47
2021/08/25 13:24:38;;;;;;;6.82;3.83;;;26.40;34.60;;;;;;5131510;28;20382;-50
2021/08/25 13:27:04;;;;;;;5.78;3.63;;;27.10;33.90;;;;;;5130653;28;20030;-48
2021/08/25 13:29:29;;;;;;;4.97;3.22;;;27.80;32.80;;;;;;5131154;27;20420;-49
2021/08/25 13:31:55;;;;;;;7.00;3.42;;;26.70;34.60;;;;;;5130131;28;20073;-48
2021/08/25 13:34:21;;;;;;;5.25;3.55;;;26.40;35.20;;;;;;5130190;27;20024;-50
2021/08/25 13:36:46;;;;;;;5.05;3.83;;;25.80;35.60;;;;;;5130892;27;20019;-48
2021/08/25 13:39:12;;;;;;;5.18;3.65;;;24.80;37.50;;;;;;5130430;28;20022;-47
2021/08/25 13:41:38;;;;;;;7.88;3.80;;;24.60;38.20;;;;;;5130501;28;20127;-49
2021/08/25 13:44:03;;;;;;;7.93;4.00;;;24.60;38.40;;;;;;5130541;27;20035;-47
2021/08/25 13:46:31;;;;;;;6.07;3.97;;;24.80;38.40;;;;;;5130623;27;20027;-50
2021/08/25 13:48:57;;;;;;;7.05;3.15;;;24.40;39.60;;;;;;5129787;27;20028;-50
2021/08/25 13:51:24;;;;;;;6.00;3.83;;;23.90;40.70;;;;;;5130411;27;20058;-47
2021/08/25 13:53:49;;;;;;;5.07;3.60;;;24.00;40.50;;;;;;5130488;27;20077;-47
2021/08/25 13:56:15;;;;;;;6.05;3.47;;;24.30;40.70;;;;;;5130412;27;20475;-48
2021/08/25 13:58:41;;;;;;;7.15;3.75;;;24.50;40.10;;;;;;5129107;28;20024;-47
2021/08/25 14:01:06;;;;;;;6.57;3.15;;;24.70;39.50;;;;;;5130154;28;20115;-53
2021/08/25 14:03:32;;;;;;;7.53;3.53;;;24.30;40.20;;;;;;5120088;28;20031;-48
2021/08/25 14:05:58;;;;;;;5.68;3.50;;;24.20;40.50;;;;;;5115879;28;20123;-46
2021/08/25 14:08:23;;;;;;;5.13;3.13;;;24.50;39.90;;;;;;5115962;28;20084;-46
2021/08/25 14:10:51;;;;;;;5.70;3.83;;;25.00;39.30;;;;;;5115708;28;20081;-47
2021/08/25 14:13:17;;;;;;;4.22;3.45;;;24.70;39.10;;;;;;5115985;28;20023;-46
2021/08/25 14:15:43;;;;;;;4.53;3.53;;;24.60;39.80;;;;;;5115014;28;20028;-48
2021/08/25 14:18:09;;;;;;;4.57;2.90;;;24.50;39.60;;;;;;5115738;28;20076;-50
2021/08/25 14:20:35;;;;;;;7.63;3.60;;;24.50;39.40;;;;;;5114178;28;20023;-50
2021/08/25 14:23:01;;;;;;;7.72;3.42;;;24.20;40.80;;;;;;5114568;28;20023;-48
2021/08/25 14:25:27;;;;;;;5.75;3.15;;;24.30;40.80;;;;;;5115691;28;20020;-47
2021/08/25 14:27:52;;;;;;;5.75;3.95;;;24.50;40.80;;;;;;5115567;28;20023;-48
2021/08/25 14:30:18;;;;;;;4.15;3.15;;;24.40;40.90;;;;;;5115177;28;20098;-47
2021/08/25 14:32:44;;;;;;;6.82;3.20;;;24.80;40.30;;;;;;5115127;28;20028;-48
2021/08/25 14:35:09;;;;;;;8.10;3.70;;;24.90;39.60;;;;;;5115008;28;20072;-46
2021/08/25 14:37:35;;;;;;;6.55;3.00;;;25.40;38.50;;;;;;5114984;28;20016;-48
2021/08/25 14:40:04;;;;;;;4.22;3.17;;;25.50;38.40;;;;;;5115204;28;20070;-49
2021/08/25 14:42:30;;;;;;;4.87;3.03;;;25.50;37.70;;;;;;5114211;28;20031;-48
2021/08/25 14:44:56;;;;;;;7.70;3.65;;;25.10;39.20;;;;;;5114970;28;20023;-48
2021/08/25 14:47:21;;;;;;;4.97;3.63;;;25.00;39.70;;;;;;5115224;28;20099;-47
2021/08/25 14:49:48;;;;;;;8.07;3.58;;;25.10;40.20;;;;;;5115578;28;20023;-47
2021/08/25 14:52:13;;;;;;;6.15;3.88;;;24.80;40.30;;;;;;5115709;28;20140;-48
2021/08/25 14:54:39;;;;;;;5.55;4.00;;;24.70;40.60;;;;;;5115268;28;20353;-46
2021/08/25 14:57:05;;;;;;;6.55;3.90;;;24.70;40.20;;;;;;5115192;28;20020;-46
2021/08/25 14:59:32;;;;;;;7.80;4.00;;;24.00;41.80;;;;;;5115353;28;20023;-52
2021/08/25 15:01:59;;;;;;;7.88;4.28;;;24.10;41.40;;;;;;5115493;27;20031;-47
2021/08/25 15:04:24;;;;;;;5.75;3.80;;;24.30;41.20;;;;;;5115255;28;20475;-49
2021/08/25 15:06:53;;;;;;;6.43;4.30;;;24.30;41.20;;;;;;5115673;28;20103;-47
2021/08/25 15:09:19;;;;;;;5.75;3.60;;;23.90;42.10;;;;;;5115400;28;20027;-48
2021/08/25 15:11:45;;;;;;;6.93;4.20;;;24.20;42.50;;;;;;5112846;28;20544;-49
2021/08/25 15:14:11;;;;;;;5.30;3.72;;;24.10;42.40;;;;;;5113478;28;20020;-48